Time;durP1;ratioP1;P1;durP2;ratioP2;P2;SDS_P1;SDS_P2;PMS_P1;PMS_P2;Temp;Humidity;BMP_temperature;BMP_pressure;BME280_temperature;BME280_humidity;BME280_pressure;Samples;Min_cycle;Max_cycle;Signal;HPM_P1;HPM_P2
2022/10/04 00:01:05;;;;;;;115.68;109.22;;;13.00;99.90;;;;;;5049553;28;20411;-61
2022/10/04 00:03:36;;;;;;;103.97;98.18;;;13.00;99.90;;;;;;5048230;28;20794;-61
2022/10/04 00:06:05;;;;;;;106.50;100.38;;;13.00;99.90;;;;;;5047508;28;20472;-60
2022/10/04 00:08:48;;;;;;;117.00;110.20;;;13.00;99.90;;;;;;5047056;28;20382;-61
2022/10/04 00:11:16;;;;;;;113.70;107.50;;;13.00;99.90;;;;;;5048556;28;20400;-59
2022/10/04 00:13:48;;;;;;;85.40;80.47;;;13.00;99.90;;;;;;5049277;28;20480;-61
2022/10/04 00:16:27;;;;;;;111.47;105.07;;;13.00;99.90;;;;;;5048780;28;20377;-61
2022/10/04 00:19:21;;;;;;;110.97;104.90;;;12.90;99.90;;;;;;5048885;28;20851;-61
2022/10/04 00:21:55;;;;;;;121.03;114.35;;;12.80;99.90;;;;;;5049907;28;20385;-61
2022/10/04 00:24:29;;;;;;;118.35;111.75;;;12.80;99.90;;;;;;5050296;28;20389;-61
2022/10/04 00:27:20;;;;;;;118.30;111.77;;;12.80;99.90;;;;;;5050250;28;20677;-60
2022/10/04 00:30:01;;;;;;;121.07;114.40;;;12.90;99.90;;;;;;5050170;28;20435;-61
2022/10/04 00:32:39;;;;;;;120.78;114.07;;;12.90;99.90;;;;;;5048746;28;20740;-61
2022/10/04 00:35:23;;;;;;;116.22;109.72;;;12.90;99.90;;;;;;5048198;28;20400;-59
2022/10/04 00:38:05;;;;;;;112.82;106.40;;;12.80;99.90;;;;;;5049326;28;20556;-61
2022/10/04 00:40:35;;;;;;;91.20;85.85;;;12.80;99.90;;;;;;5049736;28;20433;-61
2022/10/04 00:43:18;;;;;;;117.40;110.90;;;12.80;99.90;;;;;;5050774;28;20716;-62
2022/10/04 00:46:03;;;;;;;118.83;111.93;;;12.80;99.90;;;;;;5052005;28;20381;-61
2022/10/04 00:48:55;;;;;;;102.22;96.05;;;12.80;99.90;;;;;;5051120;28;20989;-61
2022/10/04 00:51:27;;;;;;;111.85;105.40;;;12.80;99.90;;;;;;5041889;28;20484;-61
2022/10/04 00:54:29;;;;;;;117.87;111.43;;;12.80;99.90;;;;;;5050608;28;20377;-59
2022/10/04 00:56:58;;;;;;;110.03;103.65;;;12.70;99.90;;;;;;5050723;28;20704;-60
2022/10/04 00:59:40;;;;;;;115.18;108.82;;;12.60;99.90;;;;;;5051868;28;20496;-60
2022/10/04 01:02:15;;;;;;;122.93;115.82;;;12.60;99.90;;;;;;5052286;28;20808;-61
2022/10/04 01:05:01;;;;;;;128.75;121.18;;;12.60;99.90;;;;;;5052530;28;20397;-60
2022/10/04 01:07:33;;;;;;;114.75;108.38;;;12.60;99.90;;;;;;5052737;28;20394;-61
2022/10/04 01:10:06;;;;;;;124.18;117.25;;;12.60;99.90;;;;;;5051824;28;20488;-61
2022/10/04 01:12:32;;;;;;;108.43;102.07;;;12.70;99.90;;;;;;5051099;28;20877;-61
2022/10/04 01:15:36;;;;;;;118.60;111.67;;;12.70;99.90;;;;;;5050266;28;20871;-61
2022/10/04 01:18:28;;;;;;;119.15;112.43;;;12.70;99.90;;;;;;5009208;28;20389;-61
2022/10/04 01:20:57;;;;;;;114.72;108.18;;;12.70;99.90;;;;;;5049882;28;20388;-61
2022/10/04 01:23:31;;;;;;;108.57;102.38;;;12.70;99.90;;;;;;5049735;28;20475;-60
2022/10/04 01:25:57;;;;;;;108.28;102.25;;;12.60;99.90;;;;;;5050987;28;20541;-60
2022/10/04 01:28:25;;;;;;;99.47;93.78;;;12.60;99.90;;;;;;5049975;28;20382;-60
2022/10/04 01:30:51;;;;;;;106.65;100.90;;;12.60;99.90;;;;;;5052359;28;20416;-59
2022/10/04 01:33:17;;;;;;;110.60;104.40;;;12.60;99.90;;;;;;5053199;28;20460;-61
2022/10/04 01:35:43;;;;;;;98.17;92.30;;;12.60;99.90;;;;;;5052811;28;20746;-61
2022/10/04 01:38:11;;;;;;;112.97;106.70;;;12.50;99.90;;;;;;5051714;28;20416;-61
2022/10/04 01:40:45;;;;;;;125.10;117.80;;;12.50;99.90;;;;;;5052301;28;20808;-59
2022/10/04 01:43:17;;;;;;;115.43;108.72;;;12.50;99.90;;;;;;5051259;28;20476;-61
2022/10/04 01:45:48;;;;;;;121.97;115.07;;;12.50;99.90;;;;;;5051379;28;20381;-61
2022/10/04 01:48:23;;;;;;;120.93;114.18;;;12.50;99.90;;;;;;5051845;28;20390;-61
2022/10/04 01:51:21;;;;;;;103.70;97.63;;;12.50;99.90;;;;;;5051070;28;20385;-60
2022/10/04 01:53:59;;;;;;;117.20;110.47;;;12.50;99.90;;;;;;5046412;28;20930;-61
2022/10/04 01:56:30;;;;;;;124.78;117.57;;;12.50;99.90;;;;;;5053232;28;20877;-61
2022/10/04 01:59:03;;;;;;;117.30;110.68;;;12.50;99.90;;;;;;5053478;28;20825;-61
2022/10/04 02:01:42;;;;;;;127.47;120.20;;;12.50;99.90;;;;;;5052473;28;20480;-59
2022/10/04 02:04:17;;;;;;;124.23;117.27;;;12.50;99.90;;;;;;5050817;28;20467;-60
2022/10/04 02:06:45;;;;;;;123.13;116.18;;;12.50;99.90;;;;;;5049855;28;20843;-60
2022/10/04 02:09:19;;;;;;;127.65;120.32;;;12.50;99.90;;;;;;5050628;28;20393;-59
2022/10/04 02:11:51;;;;;;;115.70;109.05;;;12.50;99.90;;;;;;5051351;28;20477;-60
2022/10/04 02:14:24;;;;;;;118.10;111.15;;;12.50;99.90;;;;;;5052527;28;20478;-60
2022/10/04 02:16:52;;;;;;;120.37;113.57;;;12.40;99.90;;;;;;5052321;28;20396;-60
2022/10/04 02:19:30;;;;;;;126.75;119.43;;;12.40;99.90;;;;;;5050046;28;20401;-61
2022/10/04 02:21:57;;;;;;;121.43;114.55;;;12.40;99.90;;;;;;5050586;28;20742;-60
2022/10/04 02:24:23;;;;;;;132.05;124.63;;;12.40;99.90;;;;;;5051028;28;20397;-60
2022/10/04 02:26:52;;;;;;;117.07;110.32;;;12.40;99.90;;;;;;5050483;28;20413;-59
2022/10/04 02:29:19;;;;;;;110.82;104.43;;;12.40;99.90;;;;;;5051821;28;20712;-60
2022/10/04 02:34:31;;;;;;;133.02;125.43;;;12.40;99.90;;;;;;5052580;28;20674;-61
2022/10/04 02:37:02;;;;;;;129.10;121.65;;;12.40;99.90;;;;;;5050382;28;20401;-60
2022/10/04 02:39:37;;;;;;;102.65;96.28;;;12.40;99.90;;;;;;5052695;28;20804;-61
2022/10/04 02:42:12;;;;;;;145.43;136.70;;;12.30;99.90;;;;;;5051632;28;20394;-60
2022/10/04 02:44:42;;;;;;;130.60;123.00;;;12.30;99.90;;;;;;5052685;28;20404;-61
2022/10/04 02:47:15;;;;;;;127.07;119.22;;;12.30;99.90;;;;;;5051633;28;20396;-59
2022/10/04 02:49:54;;;;;;;151.73;142.93;;;12.20;99.90;;;;;;5054748;28;20407;-59
2022/10/04 02:52:27;;;;;;;156.15;147.57;;;12.20;99.90;;;;;;5055191;28;20769;-61
2022/10/04 02:55:04;;;;;;;156.80;147.88;;;12.20;99.90;;;;;;5055200;28;20404;-61
2022/10/04 02:57:32;;;;;;;160.82;152.18;;;12.20;99.90;;;;;;5055901;28;20409;-60
2022/10/04 03:00:15;;;;;;;139.52;131.65;;;12.30;99.90;;;;;;5057612;28;20432;-59
2022/10/04 03:02:41;;;;;;;118.70;111.85;;;12.40;99.90;;;;;;5057422;28;20392;-60
2022/10/04 03:05:13;;;;;;;143.15;135.15;;;12.40;99.90;;;;;;5055896;28;20531;-67
2022/10/04 03:07:39;;;;;;;121.68;114.60;;;12.40;99.90;;;;;;5056176;28;20389;-60
2022/10/04 03:10:10;;;;;;;119.93;113.43;;;12.40;99.90;;;;;;5056186;28;20685;-60
2022/10/04 03:12:37;;;;;;;142.93;134.73;;;12.40;99.90;;;;;;5056265;28;20433;-59
2022/10/04 03:15:09;;;;;;;135.80;128.20;;;12.30;99.90;;;;;;5055129;28;20492;-60
2022/10/04 03:17:35;;;;;;;125.97;118.63;;;12.30;99.90;;;;;;5055388;28;20572;-60
2022/10/04 03:20:03;;;;;;;121.10;114.20;;;12.30;99.90;;;;;;5056186;28;20409;-60
2022/10/04 03:22:29;;;;;;;134.25;126.47;;;12.30;99.90;;;;;;5054977;28;20396;-60
2022/10/04 03:24:56;;;;;;;136.75;129.10;;;12.30;99.90;;;;;;5055326;28;20389;-59
2022/10/04 03:27:30;;;;;;;152.82;144.15;;;12.30;99.90;;;;;;5055008;28;20397;-60
2022/10/04 03:29:58;;;;;;;145.27;137.15;;;12.40;99.90;;;;;;5056749;28;20778;-61
2022/10/04 03:32:24;;;;;;;145.65;137.40;;;12.40;99.90;;;;;;5056056;28;20789;-58
2022/10/04 03:35:03;;;;;;;148.70;140.25;;;12.40;99.90;;;;;;5055080;28;20455;-61
2022/10/04 03:37:33;;;;;;;143.15;135.25;;;12.50;99.90;;;;;;5054944;28;20412;-60
2022/10/04 03:40:00;;;;;;;127.28;119.82;;;12.50;99.90;;;;;;5056440;28;20413;-60
2022/10/04 03:42:33;;;;;;;139.35;131.35;;;12.50;99.90;;;;;;5054776;28;20411;-61
2022/10/04 03:45:01;;;;;;;140.48;132.02;;;12.40;99.90;;;;;;5054403;28;20679;-60
2022/10/04 03:47:34;;;;;;;136.20;128.65;;;12.40;99.90;;;;;;5052868;28;20382;-61
2022/10/04 03:50:17;;;;;;;125.22;118.30;;;12.40;99.90;;;;;;5053882;28;20868;-61
2022/10/04 03:52:49;;;;;;;140.87;132.87;;;12.40;99.90;;;;;;5050171;28;20488;-61
2022/10/04 03:55:17;;;;;;;116.78;109.53;;;12.40;99.90;;;;;;5051003;28;20420;-63
2022/10/04 03:57:43;;;;;;;134.55;126.97;;;12.40;99.90;;;;;;5054285;28;20411;-61
2022/10/04 04:00:13;;;;;;;143.60;135.30;;;12.40;99.90;;;;;;5051691;28;20401;-60
2022/10/04 04:02:51;;;;;;;139.77;131.88;;;12.40;99.90;;;;;;5049475;28;20381;-60
2022/10/04 04:05:36;;;;;;;142.23;134.17;;;12.40;99.90;;;;;;5051907;28;20393;-61
2022/10/04 04:08:22;;;;;;;148.40;140.07;;;12.40;99.90;;;;;;5052493;28;20447;-60
2022/10/04 04:10:51;;;;;;;128.85;121.55;;;12.40;99.90;;;;;;5050578;28;20570;-61
2022/10/04 04:13:52;;;;;;;141.48;133.70;;;12.40;99.90;;;;;;5049013;28;20467;-60
2022/10/04 04:16:19;;;;;;;145.07;136.63;;;12.50;99.90;;;;;;5047685;28;20400;-59
2022/10/04 04:18:48;;;;;;;130.23;122.60;;;12.40;99.90;;;;;;5046569;28;20405;-61
2022/10/04 04:21:19;;;;;;;117.28;110.72;;;12.40;99.90;;;;;;5045482;28;20784;-60
2022/10/04 04:23:54;;;;;;;142.32;134.10;;;12.40;99.90;;;;;;5043560;28;20374;-61
2022/10/04 04:26:33;;;;;;;131.17;123.80;;;12.30;99.90;;;;;;5042941;28;20671;-61
2022/10/04 04:29:11;;;;;;;155.88;147.23;;;12.30;99.90;;;;;;5044516;28;20464;-61
2022/10/04 04:31:52;;;;;;;145.23;137.38;;;12.30;99.90;;;;;;5042504;28;20492;-61
2022/10/04 04:34:24;;;;;;;124.20;116.90;;;12.30;99.90;;;;;;5042674;28;20417;-61
2022/10/04 04:36:54;;;;;;;113.45;106.97;;;12.40;99.90;;;;;;5043673;28;20410;-62
2022/10/04 04:39:38;;;;;;;149.23;140.95;;;12.20;99.90;;;;;;5046660;28;20432;-61
2022/10/04 04:42:30;;;;;;;144.75;136.73;;;12.20;99.90;;;;;;5045799;28;20602;-61
2022/10/04 04:44:59;;;;;;;141.65;133.70;;;12.30;99.90;;;;;;5046308;28;20564;-61
2022/10/04 04:47:32;;;;;;;130.18;123.00;;;12.40;99.90;;;;;;5046213;28;20389;-61
2022/10/04 04:50:14;;;;;;;129.38;122.10;;;12.40;99.90;;;;;;5048066;28;20388;-61
2022/10/04 04:52:50;;;;;;;136.97;129.37;;;12.40;99.90;;;;;;5045661;28;20400;-61
2022/10/04 04:55:23;;;;;;;140.43;132.60;;;12.40;99.90;;;;;;5043725;28;20385;-61
2022/10/04 04:57:51;;;;;;;145.13;137.07;;;12.40;99.90;;;;;;5044564;28;20404;-60
2022/10/04 05:00:19;;;;;;;136.32;128.90;;;12.40;99.90;;;;;;5045135;28;20401;-61
2022/10/04 05:02:55;;;;;;;137.25;129.45;;;12.40;99.90;;;;;;5044616;28;20377;-61
2022/10/04 05:05:24;;;;;;;116.47;109.63;;;12.40;99.90;;;;;;5041583;28;20854;-61
2022/10/04 05:08:18;;;;;;;126.13;119.30;;;12.40;99.90;;;;;;5040708;28;20716;-61
2022/10/04 05:11:05;;;;;;;139.55;131.77;;;12.40;99.90;;;;;;5042385;28;20429;-62
2022/10/04 05:14:04;;;;;;;113.68;107.22;;;12.30;99.90;;;;;;5042006;28;20373;-59
2022/10/04 05:16:39;;;;;;;115.00;108.57;;;12.30;99.90;;;;;;5041428;28;20386;-61
2022/10/04 05:19:11;;;;;;;141.82;134.00;;;12.20;99.90;;;;;;5044153;28;20817;-61
2022/10/04 05:21:38;;;;;;;144.20;136.05;;;12.20;99.90;;;;;;5045438;28;20429;-62
2022/10/04 10:58:48;;;;;;;103.00;97.07;;;16.80;99.90;;;;;;3099528;22;20681;-59
2022/10/04 11:01:48;;;;;;;96.72;90.50;;;17.10;99.90;;;;;;4952235;28;20441;-58
2022/10/04 11:04:43;;;;;;;94.47;88.78;;;16.90;99.90;;;;;;4943901;28;20554;-58
2022/10/04 11:07:32;;;;;;;100.07;93.90;;;17.00;99.90;;;;;;4883766;28;21004;-58
2022/10/04 11:10:29;;;;;;;94.00;88.30;;;17.00;99.90;;;;;;4954815;28;20386;-59
2022/10/04 11:13:01;;;;;;;97.60;91.65;;;17.10;99.90;;;;;;4963009;28;20380;-56
2022/10/04 11:15:38;;;;;;;87.97;82.72;;;17.20;99.90;;;;;;4945698;28;20392;-56
2022/10/04 11:18:16;;;;;;;102.90;96.50;;;17.10;99.90;;;;;;4936534;28;20430;-58
2022/10/04 11:21:17;;;;;;;100.83;94.63;;;17.10;99.90;;;;;;4954604;28;20668;-59
2022/10/04 11:24:13;;;;;;;96.30;90.28;;;17.30;99.90;;;;;;4948820;28;20438;-60
2022/10/04 11:27:15;;;;;;;106.85;100.20;;;17.30;99.90;;;;;;4932456;28;20478;-58
2022/10/04 11:30:19;;;;;;;97.78;91.80;;;17.10;99.90;;;;;;4931051;28;20431;-59
2022/10/04 11:33:13;;;;;;;93.20;87.37;;;17.00;99.90;;;;;;4931106;28;20825;-58
2022/10/04 11:36:07;;;;;;;101.57;95.60;;;17.00;99.90;;;;;;4928982;28;21024;-57
2022/10/04 11:39:01;;;;;;;110.22;103.63;;;16.80;99.90;;;;;;4929265;28;20637;-59
2022/10/04 11:41:38;;;;;;;111.93;104.78;;;16.60;99.90;;;;;;4928311;28;20701;-59
2022/10/04 11:44:20;;;;;;;106.78;100.22;;;16.60;99.90;;;;;;4931145;28;20632;-59
2022/10/04 11:47:08;;;;;;;103.85;97.47;;;16.80;99.90;;;;;;4932915;28;20414;-60
2022/10/04 11:50:04;;;;;;;99.50;93.18;;;16.90;99.90;;;;;;4931226;28;20485;-58
2022/10/04 11:52:35;;;;;;;100.03;93.80;;;16.90;99.90;;;;;;4932039;28;20431;-58
2022/10/04 11:55:13;;;;;;;84.85;79.38;;;17.00;99.90;;;;;;4930827;28;20389;-57
2022/10/04 11:58:01;;;;;;;98.55;92.50;;;17.00;99.90;;;;;;4929505;28;21001;-59
2022/10/04 12:00:59;;;;;;;83.45;78.18;;;17.30;99.90;;;;;;4926820;28;20767;-59
2022/10/04 12:03:54;;;;;;;96.25;90.38;;;17.70;99.90;;;;;;4928927;28;20531;-59
2022/10/04 12:06:47;;;;;;;77.22;72.32;;;17.50;99.90;;;;;;4949465;28;20398;-60
2022/10/04 12:09:27;;;;;;;80.20;75.28;;;17.40;99.90;;;;;;4932647;28;20765;-59
2022/10/04 12:12:37;;;;;;;72.78;68.30;;;17.40;99.90;;;;;;4949102;28;20526;-58
2022/10/04 12:15:35;;;;;;;75.80;71.17;;;17.50;99.90;;;;;;4934441;28;21090;-57
2022/10/04 12:18:37;;;;;;;65.30;61.30;;;17.50;99.90;;;;;;4932366;28;21032;-57
2022/10/04 12:21:57;;;;;;;65.97;61.57;;;17.40;99.90;;;;;;4943898;28;20492;-57
2022/10/04 12:24:49;;;;;;;78.65;73.55;;;17.80;99.90;;;;;;4900950;28;20742;-59
2022/10/04 12:27:37;;;;;;;83.10;77.75;;;18.10;99.90;;;;;;4943080;28;20676;-59
2022/10/04 12:30:42;;;;;;;53.57;50.17;;;18.10;99.90;;;;;;4928681;28;20644;-59
2022/10/04 12:33:28;;;;;;;88.00;82.40;;;18.20;99.90;;;;;;4927643;28;20396;-58
2022/10/04 12:36:07;;;;;;;78.80;74.07;;;18.00;99.90;;;;;;4931985;28;20553;-59
2022/10/04 12:38:50;;;;;;;76.25;71.50;;;17.80;99.90;;;;;;4948167;28;20504;-57
2022/10/04 12:41:22;;;;;;;75.68;70.97;;;17.70;99.90;;;;;;4930702;28;20490;-59
2022/10/04 12:44:21;;;;;;;81.55;76.63;;;17.90;99.90;;;;;;4930207;28;20404;-59
2022/10/04 12:47:23;;;;;;;79.57;74.78;;;17.70;99.90;;;;;;4877470;28;20395;-58
2022/10/04 12:50:04;;;;;;;83.50;78.53;;;18.00;99.90;;;;;;4926934;28;20392;-58
2022/10/04 12:52:48;;;;;;;81.75;76.80;;;18.40;99.90;;;;;;4927146;28;20411;-58
2022/10/04 12:55:41;;;;;;;76.75;71.68;;;18.70;99.90;;;;;;4930871;28;20402;-54
2022/10/04 12:58:19;;;;;;;86.68;81.35;;;19.10;99.90;;;;;;4931846;28;20795;-57
2022/10/04 13:00:47;;;;;;;92.38;86.70;;;19.40;99.90;;;;;;4950696;28;20431;-58
2022/10/04 13:03:24;;;;;;;89.80;84.22;;;19.50;99.90;;;;;;4934367;28;20404;-57
2022/10/04 13:05:52;;;;;;;92.47;86.47;;;19.40;99.90;;;;;;4934788;28;20447;-58
2022/10/04 13:08:37;;;;;;;90.43;84.90;;;19.40;99.90;;;;;;4935412;28;20817;-59
2022/10/04 13:11:22;;;;;;;116.32;108.88;;;19.30;99.90;;;;;;4934617;28;20610;-59
2022/10/04 13:13:57;;;;;;;102.68;96.38;;;19.10;99.90;;;;;;4932672;28;20435;-58
2022/10/04 13:16:44;;;;;;;95.38;89.72;;;19.20;99.90;;;;;;4930203;28;20526;-59
2022/10/04 13:19:36;;;;;;;99.18;92.95;;;19.40;99.90;;;;;;4929337;28;20723;-58
2022/10/04 13:22:39;;;;;;;108.50;101.60;;;19.30;99.90;;;;;;4928048;28;20628;-58
2022/10/04 13:25:38;;;;;;;104.07;97.55;;;19.40;99.90;;;;;;4866308;29;20490;-58
2022/10/04 13:28:21;;;;;;;96.75;90.63;;;19.50;99.90;;;;;;4926098;28;20396;-59
2022/10/04 13:30:59;;;;;;;90.70;85.10;;;19.40;99.90;;;;;;4925718;28;20719;-58
2022/10/04 13:33:56;;;;;;;108.65;102.00;;;19.60;99.90;;;;;;4927540;28;20418;-56
2022/10/04 13:36:46;;;;;;;96.95;91.18;;;19.90;99.90;;;;;;4945533;28;20446;-57
2022/10/04 13:39:27;;;;;;;99.55;93.55;;;20.00;99.90;;;;;;4948555;28;20522;-59
2022/10/04 13:41:59;;;;;;;99.28;93.25;;;19.80;99.90;;;;;;4931885;28;20414;-56
2022/10/04 13:44:55;;;;;;;91.93;86.37;;;19.90;99.90;;;;;;4932326;28;20408;-59
2022/10/04 13:47:36;;;;;;;82.05;76.88;;;20.20;99.90;;;;;;4952295;28;21036;-58
2022/10/04 13:50:13;;;;;;;83.22;78.07;;;20.50;99.90;;;;;;4936824;28;20583;-59
2022/10/04 13:56:35;;;;;;;97.90;92.20;;;20.20;99.90;;;;;;4956250;28;20410;-59
2022/10/04 13:59:22;;;;;;;85.57;80.22;;;20.80;99.90;;;;;;4936087;28;20471;-57
2022/10/04 14:01:57;;;;;;;77.55;72.75;;;20.50;99.90;;;;;;4952952;28;20435;-57
2022/10/04 14:05:00;;;;;;;78.57;73.57;;;20.50;99.90;;;;;;4955123;28;20671;-56
2022/10/04 14:07:44;;;;;;;92.87;86.90;;;20.50;99.90;;;;;;4937371;28;20384;-58
2022/10/04 14:10:18;;;;;;;65.25;61.00;;;20.50;99.90;;;;;;4935875;28;20602;-57
2022/10/04 14:13:10;;;;;;;85.10;79.88;;;20.60;99.90;;;;;;4933813;28;20717;-54
2022/10/04 14:16:14;;;;;;;94.55;88.88;;;20.50;99.90;;;;;;4952927;28;20629;-57
2022/10/04 14:19:05;;;;;;;84.40;79.25;;;20.30;99.90;;;;;;4936398;28;20487;-58
2022/10/04 14:22:03;;;;;;;85.47;80.22;;;20.40;99.90;;;;;;4935138;28;20827;-58
2022/10/04 14:24:35;;;;;;;83.75;78.78;;;20.30;99.90;;;;;;4932639;28;20937;-58
2022/10/04 14:27:38;;;;;;;87.97;82.68;;;20.20;99.90;;;;;;4935553;28;20389;-54
2022/10/04 14:30:23;;;;;;;101.05;94.93;;;20.40;99.90;;;;;;4937190;28;20404;-58
2022/10/04 14:33:13;;;;;;;96.65;90.95;;;20.60;99.90;;;;;;4954923;28;20809;-56
2022/10/04 14:35:53;;;;;;;93.35;87.53;;;20.70;99.90;;;;;;4956929;28;20451;-57
2022/10/04 14:38:46;;;;;;;100.00;93.82;;;20.70;99.90;;;;;;4941192;28;20395;-56
2022/10/04 14:41:28;;;;;;;95.67;89.90;;;20.50;99.90;;;;;;4942637;28;20691;-57
2022/10/04 14:44:15;;;;;;;94.25;88.60;;;20.60;99.90;;;;;;4946328;28;20819;-58
2022/10/04 14:47:12;;;;;;;94.47;88.88;;;21.00;99.90;;;;;;4948653;28;20465;-55
2022/10/04 14:49:52;;;;;;;93.57;87.90;;;20.90;99.90;;;;;;4946234;28;20456;-55
2022/10/04 14:52:27;;;;;;;88.70;83.20;;;20.80;99.90;;;;;;4960890;28;20663;-54
2022/10/04 14:55:06;;;;;;;101.97;96.13;;;20.30;99.90;;;;;;4938875;28;20559;-55
2022/10/04 14:58:12;;;;;;;91.13;85.68;;;20.40;99.90;;;;;;4940955;28;20792;-58
2022/10/04 15:01:15;;;;;;;89.68;84.00;;;20.30;99.90;;;;;;4939846;28;20443;-57
2022/10/04 15:04:16;;;;;;;95.93;89.95;;;20.10;99.90;;;;;;4957219;28;20625;-56
2022/10/04 15:06:50;;;;;;;89.00;83.80;;;19.80;99.90;;;;;;4916392;28;20380;-59
2022/10/04 15:09:53;;;;;;;86.43;80.97;;;19.70;99.90;;;;;;4941682;28;20399;-52
2022/10/04 15:13:01;;;;;;;88.43;83.13;;;19.60;99.90;;;;;;4957715;28;20419;-55
2022/10/04 15:15:39;;;;;;;88.80;83.85;;;19.60;99.90;;;;;;4938326;28;20530;-57
2022/10/04 15:18:26;;;;;;;90.88;85.63;;;19.40;99.90;;;;;;4936724;28;20797;-58
2022/10/04 15:21:10;;;;;;;96.80;90.97;;;19.40;99.90;;;;;;4955539;28;20485;-59
2022/10/04 15:23:46;;;;;;;117.00;110.03;;;19.50;99.90;;;;;;4937447;28;20629;-59
2022/10/04 15:26:18;;;;;;;94.73;89.00;;;19.30;99.90;;;;;;4941311;28;20982;-54
2022/10/04 15:28:49;;;;;;;95.75;90.32;;;19.30;99.90;;;;;;4939007;28;20455;-58
2022/10/04 15:31:19;;;;;;;94.18;88.55;;;19.20;99.90;;;;;;4938507;28;20754;-57
2022/10/04 15:34:03;;;;;;;88.55;83.25;;;19.20;99.90;;;;;;4938483;28;20618;-59
2022/10/04 15:36:45;;;;;;;94.70;89.20;;;19.20;99.90;;;;;;4938908;28;20626;-58
2022/10/04 15:39:31;;;;;;;86.53;81.35;;;19.10;99.90;;;;;;4939829;28;20400;-57
2022/10/04 15:42:14;;;;;;;89.40;84.32;;;19.00;99.90;;;;;;4938019;28;20403;-58
2022/10/04 15:45:17;;;;;;;93.03;87.70;;;19.00;99.90;;;;;;4952106;28;20966;-58
2022/10/04 15:48:03;;;;;;;82.00;77.20;;;19.00;99.90;;;;;;4934605;28;20993;-58
2022/10/04 15:50:33;;;;;;;80.18;75.63;;;18.90;99.90;;;;;;4932149;28;20392;-57
2022/10/04 15:53:11;;;;;;;85.97;80.85;;;19.00;99.90;;;;;;4929342;28;20410;-56
2022/10/04 15:56:11;;;;;;;105.20;99.07;;;18.90;99.90;;;;;;4929505;28;20389;-55
2022/10/04 15:58:52;;;;;;;86.38;81.35;;;18.90;99.90;;;;;;4948937;28;20612;-58
2022/10/04 16:02:02;;;;;;;83.55;78.63;;;18.80;99.90;;;;;;4950970;28;20637;-57
2022/10/04 16:04:55;;;;;;;72.07;67.93;;;18.80;99.90;;;;;;4872175;29;20558;-57
2022/10/04 16:07:34;;;;;;;80.57;75.70;;;18.80;99.90;;;;;;4855334;29;20557;-56
2022/10/04 16:10:19;;;;;;;86.13;81.05;;;18.80;99.90;;;;;;4929360;28;20610;-55
2022/10/04 16:13:18;;;;;;;95.43;89.93;;;18.80;99.90;;;;;;4934287;28;20617;-57
2022/10/04 16:15:49;;;;;;;89.05;83.68;;;18.80;99.90;;;;;;4944822;28;20491;-58
2022/10/04 16:18:36;;;;;;;93.78;88.25;;;18.60;99.90;;;;;;4976132;28;20386;-58
2022/10/04 16:21:05;;;;;;;97.32;91.68;;;18.60;99.90;;;;;;4958715;28;20398;-57
2022/10/04 16:23:33;;;;;;;87.45;81.93;;;18.50;99.90;;;;;;4958951;28;20398;-58
2022/10/04 16:26:02;;;;;;;84.22;79.32;;;18.40;99.90;;;;;;4958467;28;20394;-57
2022/10/04 16:28:37;;;;;;;90.25;84.78;;;18.40;99.90;;;;;;4974232;28;20394;-56
2022/10/04 16:31:41;;;;;;;86.43;81.35;;;18.40;99.90;;;;;;4973876;28;20390;-58
2022/10/04 16:34:40;;;;;;;92.78;87.20;;;18.40;99.90;;;;;;4957215;28;20410;-55
2022/10/04 16:37:09;;;;;;;94.95;89.28;;;18.30;99.90;;;;;;4973521;28;20390;-56
2022/10/04 16:43:00;;;;;;;91.72;86.32;;;18.20;99.90;;;;;;4905558;29;20614;-58
2022/10/04 16:45:46;;;;;;;86.28;81.03;;;18.10;99.90;;;;;;4894382;29;20506;-57
2022/10/04 16:48:54;;;;;;;93.43;87.75;;;18.10;99.90;;;;;;4899603;29;20402;-58
2022/10/04 16:51:39;;;;;;;97.53;91.65;;;18.00;99.90;;;;;;4940303;28;20722;-57
2022/10/04 16:54:35;;;;;;;101.68;95.63;;;18.00;99.90;;;;;;4963670;28;20386;-58
2022/10/04 16:57:16;;;;;;;97.57;91.55;;;17.90;99.90;;;;;;4963182;28;20406;-56
2022/10/04 16:59:47;;;;;;;92.95;87.13;;;17.80;99.90;;;;;;4965653;28;20414;-58
2022/10/04 17:02:38;;;;;;;92.85;87.28;;;17.80;99.90;;;;;;4965367;28;20401;-57
2022/10/04 17:05:54;;;;;;;94.93;89.38;;;17.80;99.90;;;;;;4962584;28;20386;-58
2022/10/04 17:08:23;;;;;;;95.57;89.95;;;17.70;99.90;;;;;;4906413;28;21011;-58
2022/10/04 17:10:49;;;;;;;100.18;94.28;;;17.80;99.90;;;;;;4974575;28;20394;-59
2022/10/04 17:13:44;;;;;;;101.67;95.70;;;17.60;99.90;;;;;;4956689;28;20483;-59
2022/10/04 17:16:34;;;;;;;96.05;90.20;;;17.60;99.90;;;;;;4932621;28;20465;-57
2022/10/04 17:19:12;;;;;;;108.35;101.85;;;17.60;99.90;;;;;;4948168;28;20500;-55
2022/10/04 17:21:53;;;;;;;109.83;103.23;;;17.70;99.90;;;;;;4967654;28;20790;-58
2022/10/04 17:24:40;;;;;;;98.90;92.87;;;17.70;99.90;;;;;;4968973;28;20401;-58
2022/10/04 17:27:47;;;;;;;104.15;97.90;;;17.70;99.90;;;;;;4953282;28;20586;-56
2022/10/04 17:30:14;;;;;;;96.43;90.80;;;17.60;99.90;;;;;;4967678;28;20402;-57
2022/10/04 17:33:18;;;;;;;97.32;91.55;;;17.50;99.90;;;;;;4950287;28;20429;-58
2022/10/04 17:35:57;;;;;;;107.40;101.05;;;17.40;99.90;;;;;;4972874;28;20390;-59
2022/10/04 17:38:30;;;;;;;101.93;95.55;;;17.40;99.90;;;;;;4954507;28;20816;-58
2022/10/04 17:41:22;;;;;;;102.50;96.50;;;17.40;99.90;;;;;;4955268;28;20597;-57
2022/10/04 17:43:54;;;;;;;100.78;95.00;;;17.50;99.90;;;;;;4948572;28;20835;-59
2022/10/04 17:46:32;;;;;;;101.63;95.68;;;17.50;99.90;;;;;;4960206;28;20382;-59
2022/10/04 17:57:34;;;;;;;99.43;93.63;;;17.40;99.90;;;;;;4980039;28;20689;-56
2022/10/04 18:00:15;;;;;;;104.77;98.57;;;17.50;99.90;;;;;;4958552;28;20724;-59
2022/10/04 18:02:59;;;;;;;100.37;94.33;;;17.30;99.90;;;;;;4958869;28;20517;-61
2022/10/04 18:05:40;;;;;;;109.70;103.03;;;17.30;99.90;;;;;;4958877;28;20412;-57
2022/10/04 18:08:33;;;;;;;114.68;107.78;;;17.20;99.90;;;;;;4959056;28;20391;-58
2022/10/04 18:11:04;;;;;;;119.50;112.10;;;17.10;99.90;;;;;;4958129;28;20576;-55
2022/10/04 18:13:33;;;;;;;105.97;99.68;;;17.10;99.90;;;;;;4955992;28;20451;-56
2022/10/04 18:16:29;;;;;;;115.13;108.38;;;16.90;99.90;;;;;;4956107;28;20556;-58
2022/10/04 18:18:55;;;;;;;117.15;110.18;;;16.90;99.90;;;;;;4954519;28;20449;-56
2022/10/04 18:21:26;;;;;;;91.75;86.40;;;16.80;99.90;;;;;;4959179;28;20522;-58
2022/10/04 18:24:20;;;;;;;96.33;90.67;;;16.70;99.90;;;;;;4961580;28;20501;-59
2022/10/04 18:27:17;;;;;;;101.88;95.47;;;16.70;99.90;;;;;;4959001;28;20388;-59
2022/10/04 18:29:59;;;;;;;101.38;95.50;;;16.60;99.90;;;;;;4958377;28;20637;-59
2022/10/04 18:32:24;;;;;;;98.25;92.63;;;16.60;99.90;;;;;;4959153;28;20617;-59
2022/10/04 18:34:55;;;;;;;95.63;89.87;;;16.50;99.90;;;;;;4961676;28;20398;-57
2022/10/04 18:37:39;;;;;;;105.22;99.10;;;16.50;99.90;;;;;;4960174;28;20391;-58
2022/10/04 18:40:16;;;;;;;104.28;98.25;;;16.60;99.90;;;;;;4960604;28;20407;-59
2022/10/04 18:42:56;;;;;;;95.82;90.35;;;16.70;99.90;;;;;;4957270;28;20380;-57
2022/10/04 18:45:25;;;;;;;101.68;95.55;;;16.70;99.90;;;;;;4957685;28;20632;-58
2022/10/04 18:47:53;;;;;;;102.78;96.72;;;16.80;99.90;;;;;;4958928;28;20433;-58
2022/10/04 18:50:43;;;;;;;101.30;95.10;;;16.70;99.90;;;;;;4958260;28;20660;-58
2022/10/04 18:53:21;;;;;;;108.22;101.88;;;16.60;99.90;;;;;;4960152;28;20639;-58
2022/10/04 18:56:00;;;;;;;112.57;105.77;;;16.60;99.90;;;;;;4960630;28;20616;-56
2022/10/04 19:02:01;;;;;;;101.15;95.18;;;16.60;99.90;;;;;;4962464;28;20455;-58
2022/10/04 19:05:05;;;;;;;98.23;92.50;;;16.60;99.90;;;;;;4961860;28;20387;-59
2022/10/04 19:07:39;;;;;;;97.78;91.97;;;16.50;99.90;;;;;;4962215;28;20590;-58
2022/10/04 19:10:26;;;;;;;94.60;89.13;;;16.50;99.90;;;;;;4963684;28;20919;-58
2022/10/04 19:13:13;;;;;;;91.68;86.28;;;16.40;99.90;;;;;;4963779;28;20487;-59
2022/10/04 19:15:57;;;;;;;94.70;89.18;;;16.30;99.90;;;;;;4962134;28;20521;-57
2022/10/04 19:18:56;;;;;;;93.55;88.10;;;16.30;99.90;;;;;;4960794;28;20772;-56
2022/10/04 19:21:22;;;;;;;97.32;91.72;;;16.20;99.90;;;;;;4958014;28;20408;-56
2022/10/04 19:23:59;;;;;;;94.03;88.82;;;16.20;99.90;;;;;;4957814;28;20388;-60